createdAt,value
2023-06-21T00:00:27.148Z,49.53
2023-06-21T00:10:52.723Z,51.83
2023-06-21T00:21:22.841Z,49.67
2023-06-21T00:32:01.040Z,49.05
2023-06-21T00:53:00.450Z,52.05
2023-06-21T01:03:23.585Z,48.87
2023-06-21T01:13:51.484Z,48.50
2023-06-21T01:24:21.167Z,47.83
2023-06-21T01:34:44.800Z,52.40
2023-06-21T01:45:06.715Z,44.50
2023-06-21T01:55:30.146Z,46.60
2023-06-21T02:05:52.094Z,49.37
2023-06-21T02:16:14.879Z,43.95
2023-06-21T02:26:36.228Z,45.05
2023-06-21T02:36:59.229Z,48.17
2023-06-21T02:47:20.694Z,59.10
2023-06-21T02:57:43.989Z,57.83
2023-06-21T03:08:09.585Z,57.28
2023-06-21T03:18:32.163Z,56.08
2023-06-21T03:28:54.950Z,58.45
2023-06-21T03:39:18.358Z,55.67
2023-06-21T03:49:40.190Z,59.90
2023-06-21T04:00:03.770Z,60.42
2023-06-21T04:10:37.459Z,59.30
2023-06-21T04:21:00.576Z,63.05
2023-06-21T04:31:22.494Z,61.13
2023-06-21T04:41:47.336Z,65.38
2023-06-21T05:02:31.042Z,62.85
2023-06-21T05:12:55.479Z,62.20
2023-06-21T05:23:18.008Z,61.90
2023-06-21T05:33:39.602Z,59.80
2023-06-21T05:44:03.091Z,63.05
2023-06-21T06:04:49.423Z,70.38
2023-06-21T06:15:11.712Z,55.58
2023-06-21T06:25:34.580Z,48.40
2023-06-21T06:35:57.212Z,52.07
2023-06-21T06:46:20.217Z,44.75
2023-06-21T06:56:41.928Z,34.35
2023-06-21T07:07:05.005Z,26.05
2023-06-21T07:27:50.329Z,21.43
2023-06-21T07:38:12.000Z,23.15
2023-06-21T07:48:35.805Z,22.17
2023-06-21T07:58:57.087Z,17.02
2023-06-21T08:09:20.491Z,21.23
2023-06-21T08:19:42.608Z,15.95
2023-06-21T08:30:08.009Z,18.57
2023-06-21T08:40:32.079Z,15.30
2023-06-21T08:50:55.166Z,13.95
2023-06-21T09:01:17.973Z,18.48
2023-06-21T09:11:42.005Z,11.73
2023-06-21T09:22:03.883Z,10.43
2023-06-21T09:32:27.568Z,12.77
2023-06-21T09:42:49.285Z,10.20
2023-06-21T09:53:13.342Z,10.87
2023-06-21T10:03:38.040Z,10.95
2023-06-21T10:14:01.442Z,10.65
2023-06-21T10:24:23.961Z,14.02
2023-06-21T10:34:53.565Z,7.65
2023-06-21T10:45:15.421Z,11.57
2023-06-21T11:06:17.318Z,8.48
2023-06-21T11:16:41.479Z,6.95
2023-06-21T11:27:04.782Z,6.90
2023-06-21T11:37:36.036Z,8.48
2023-06-21T11:58:20.385Z,10.65
2023-06-21T12:08:42.203Z,7.82
2023-06-21T12:19:05.031Z,7.22
2023-06-21T12:29:28.540Z,8.48
2023-06-21T12:39:52.098Z,6.75
2023-06-21T12:50:13.574Z,6.97
2023-06-21T13:00:36.818Z,7.10
2023-06-21T13:10:58.985Z,5.82
2023-06-21T13:21:22.903Z,5.75
2023-06-21T13:31:44.563Z,6.65
2023-06-21T13:42:07.907Z,7.40
2023-06-21T13:52:32.896Z,7.07
2023-06-21T14:02:56.336Z,5.93
2023-06-21T14:13:21.343Z,6.75
2023-06-21T14:23:45.526Z,6.93
2023-06-21T14:34:07.802Z,8.40
2023-06-21T14:44:30.601Z,7.03
2023-06-21T14:54:53.617Z,7.22
2023-06-21T15:05:16.695Z,6.90
2023-06-21T15:15:38.504Z,8.75
2023-06-21T15:26:01.192Z,7.82
2023-06-21T15:36:23.033Z,7.78
2023-06-21T15:46:49.163Z,9.00
2023-06-21T15:57:14.340Z,8.95
2023-06-21T16:07:37.320Z,9.07
2023-06-21T16:17:59.144Z,7.53
2023-06-21T16:28:22.283Z,6.68
2023-06-21T16:38:46.784Z,7.40
2023-06-21T16:49:09.502Z,7.20
2023-06-21T16:59:30.793Z,7.35
2023-06-21T17:09:53.762Z,7.53
2023-06-21T17:20:15.635Z,7.80
2023-06-21T17:30:41.576Z,8.05
2023-06-21T17:41:05.047Z,8.25
2023-06-21T17:51:28.326Z,6.30
2023-06-21T18:01:50.566Z,7.05
2023-06-21T18:12:14.894Z,6.47
2023-06-21T18:22:43.032Z,8.35
2023-06-21T18:33:07.284Z,9.93
2023-06-21T18:43:28.730Z,11.65
2023-06-21T18:53:51.982Z,10.50
2023-06-21T19:04:13.860Z,14.98
2023-06-21T19:14:36.931Z,13.40
2023-06-21T19:24:58.518Z,11.20
2023-06-21T19:35:22.574Z,13.90
2023-06-21T19:45:44.006Z,13.52
2023-06-21T19:56:18.513Z,15.30
2023-06-21T20:06:40.457Z,14.38
2023-06-21T20:17:04.034Z,14.27
2023-06-21T20:27:31.974Z,13.45
2023-06-21T20:37:55.396Z,14.68
2023-06-21T20:48:18.921Z,17.85
2023-06-21T20:58:41.772Z,15.00
2023-06-21T21:09:03.768Z,15.70
2023-06-21T21:19:26.729Z,16.60
2023-06-21T21:29:48.352Z,16.90
2023-06-21T21:40:11.850Z,16.90
2023-06-21T21:50:34.477Z,18.47
2023-06-21T22:00:57.456Z,18.77
2023-06-21T22:11:19.527Z,19.02
2023-06-21T22:21:42.803Z,19.60
2023-06-21T22:32:04.393Z,17.73
2023-06-21T22:42:27.102Z,19.40
2023-06-21T22:52:52.687Z,21.60
2023-06-21T23:03:15.654Z,17.33
2023-06-21T23:13:37.240Z,18.65
2023-06-21T23:24:05.267Z,27.95
2023-06-21T23:34:27.453Z,22.38
2023-06-21T23:44:51.842Z,17.65
2023-06-21T23:55:18.770Z,17.63
